Time;durP1;ratioP1;P1;durP2;ratioP2;P2;SDS_P1;SDS_P2;PMS_P1;PMS_P2;Temp;Humidity;BMP_temperature;BMP_pressure;BME280_temperature;BME280_humidity;BME280_pressure;Samples;Min_cycle;Max_cycle;Signal;HPM_P1;HPM_P2
2021/06/10 00:01:38;;;;;;;12.70;7.90;;;23.30;99.90;;;;;;5011234;28;20390;-76
2021/06/10 00:04:04;;;;;;;11.43;7.53;;;23.30;99.90;;;;;;5011688;28;20018;-77
2021/06/10 00:06:30;;;;;;;12.30;8.40;;;23.40;99.90;;;;;;5011349;28;20112;-77
2021/06/10 00:08:56;;;;;;;10.48;7.72;;;23.40;99.90;;;;;;5010830;28;20539;-77
2021/06/10 00:11:22;;;;;;;14.77;8.88;;;23.40;99.90;;;;;;5010925;28;20109;-77
2021/06/10 00:13:47;;;;;;;13.73;8.10;;;23.40;99.90;;;;;;5011603;28;20077;-76
2021/06/10 00:16:16;;;;;;;13.20;8.38;;;23.40;99.90;;;;;;5011901;28;20367;-79
2021/06/10 00:18:42;;;;;;;11.98;8.30;;;23.40;99.90;;;;;;5011616;28;20101;-75
2021/06/10 00:21:08;;;;;;;14.23;7.88;;;23.50;99.90;;;;;;5012733;28;20014;-78
2021/06/10 00:23:33;;;;;;;11.63;7.97;;;23.60;99.90;;;;;;5015352;28;20037;-77
2021/06/10 00:25:59;;;;;;;15.95;8.38;;;23.60;99.90;;;;;;5015497;28;20025;-77
2021/06/10 00:28:25;;;;;;;9.70;7.57;;;23.60;99.90;;;;;;5015533;28;20100;-77
2021/06/10 00:30:51;;;;;;;15.93;8.23;;;23.70;99.90;;;;;;5015020;28;20413;-76
2021/06/10 00:33:16;;;;;;;12.15;8.18;;;23.70;99.90;;;;;;5015584;28;20510;-75
2021/06/10 00:35:42;;;;;;;20.20;8.05;;;23.70;99.90;;;;;;5015267;28;20091;-76
2021/06/10 00:38:08;;;;;;;13.02;7.43;;;23.80;99.90;;;;;;5015072;28;20036;-78
2021/06/10 00:40:36;;;;;;;9.85;8.38;;;23.80;99.90;;;;;;5015061;28;20397;-77
2021/06/10 00:43:03;;;;;;;10.52;7.72;;;23.80;99.90;;;;;;5014903;28;20050;-76
2021/06/10 00:45:29;;;;;;;17.08;7.95;;;23.80;99.90;;;;;;5015195;28;20034;-76
2021/06/10 00:47:56;;;;;;;8.27;7.30;;;23.80;99.90;;;;;;5014216;28;20583;-77
2021/06/10 00:50:38;;;;;;;9.85;7.60;;;23.80;99.90;;;;;;5014239;28;20042;-78
2021/06/10 00:53:04;;;;;;;12.35;8.02;;;23.80;99.90;;;;;;5015044;28;20104;-77
2021/06/10 00:55:30;;;;;;;10.38;8.07;;;23.80;99.90;;;;;;5015107;28;20818;-77
2021/06/10 00:57:55;;;;;;;8.95;7.32;;;23.80;99.90;;;;;;5015103;28;20087;-76
2021/06/10 01:00:22;;;;;;;8.13;7.28;;;23.80;99.90;;;;;;5014903;28;20032;-80
2021/06/10 01:02:48;;;;;;;11.45;8.23;;;23.70;99.90;;;;;;5014677;28;20100;-75
2021/06/10 01:05:14;;;;;;;9.35;7.88;;;23.70;99.90;;;;;;5014604;28;20025;-75
2021/06/10 01:07:58;;;;;;;10.07;7.50;;;23.80;99.90;;;;;;5015115;28;20034;-77
2021/06/10 01:10:31;;;;;;;13.18;7.65;;;23.70;99.90;;;;;;5014348;28;20030;-77
2021/06/10 01:13:12;;;;;;;11.98;7.60;;;23.70;99.90;;;;;;5015084;28;20548;-75
2021/06/10 01:15:41;;;;;;;12.20;8.15;;;23.70;99.90;;;;;;5014904;28;20093;-76
2021/06/10 01:18:10;;;;;;;11.95;8.52;;;23.70;99.90;;;;;;5014649;28;20022;-76
2021/06/10 01:20:37;;;;;;;12.32;7.72;;;23.70;99.90;;;;;;5014462;28;20033;-75
2021/06/10 01:23:30;;;;;;;10.70;7.10;;;23.70;99.90;;;;;;5014534;28;20030;-75
2021/06/10 01:26:09;;;;;;;15.82;8.57;;;23.60;99.90;;;;;;4983852;28;20030;-76
2021/06/10 01:28:36;;;;;;;10.68;7.55;;;23.60;99.90;;;;;;5014116;28;20045;-77
2021/06/10 01:31:07;;;;;;;13.18;7.63;;;23.50;99.90;;;;;;5014069;28;20070;-76
2021/06/10 01:33:44;;;;;;;9.57;7.60;;;23.50;99.90;;;;;;4995783;28;20030;-78
2021/06/10 01:36:16;;;;;;;12.95;8.10;;;23.40;99.90;;;;;;5014086;28;20049;-78
2021/06/10 01:38:46;;;;;;;11.73;8.20;;;23.40;99.90;;;;;;5014069;28;20022;-79
2021/06/10 01:41:13;;;;;;;12.73;7.55;;;23.40;99.90;;;;;;5013663;28;20105;-78
2021/06/10 01:43:41;;;;;;;14.73;7.80;;;23.30;99.90;;;;;;5014308;28;20018;-78
2021/06/10 01:46:08;;;;;;;12.77;7.47;;;23.20;99.90;;;;;;5014013;28;20483;-77
2021/06/10 01:48:35;;;;;;;10.32;7.63;;;23.20;99.90;;;;;;5013847;28;20029;-79
2021/06/10 01:51:03;;;;;;;12.07;7.43;;;23.20;99.90;;;;;;5013722;28;20100;-77
2021/06/10 01:53:31;;;;;;;11.60;7.55;;;23.10;99.90;;;;;;5013478;28;20072;-77
2021/06/10 01:55:59;;;;;;;15.23;7.68;;;23.10;99.90;;;;;;5013693;28;20026;-78
2021/06/10 01:58:26;;;;;;;9.23;7.30;;;23.10;99.90;;;;;;5014013;28;20094;-78
2021/06/10 02:00:54;;;;;;;8.95;7.60;;;23.00;99.90;;;;;;5013657;28;20490;-77
2021/06/10 02:03:24;;;;;;;11.48;7.28;;;23.00;99.90;;;;;;5013605;28;20026;-78
2021/06/10 02:05:50;;;;;;;10.48;7.07;;;22.90;99.90;;;;;;4996206;28;20025;-78
2021/06/10 02:08:19;;;;;;;11.15;7.60;;;22.90;99.90;;;;;;5013231;28;20147;-78
2021/06/10 02:10:57;;;;;;;17.85;7.30;;;22.90;99.90;;;;;;5013296;28;20510;-77
2021/06/10 02:13:28;;;;;;;9.88;7.57;;;22.90;99.90;;;;;;5013984;28;20042;-78
2021/06/10 02:15:58;;;;;;;11.57;7.45;;;22.80;99.90;;;;;;5013694;28;20074;-77
2021/06/10 02:18:24;;;;;;;11.93;7.07;;;22.80;99.90;;;;;;5013310;28;20032;-77
2021/06/10 02:20:50;;;;;;;14.27;7.43;;;22.70;99.90;;;;;;5012812;28;20497;-76
2021/06/10 02:23:16;;;;;;;12.57;7.30;;;22.70;99.90;;;;;;5013842;28;20034;-77
2021/06/10 02:25:41;;;;;;;9.05;7.03;;;22.70;99.90;;;;;;5013636;28;20026;-77
2021/06/10 02:28:07;;;;;;;17.33;7.88;;;22.60;99.90;;;;;;5013627;28;20474;-79
2021/06/10 02:30:34;;;;;;;34.63;6.95;;;22.60;99.90;;;;;;5012929;28;20057;-76
2021/06/10 02:33:00;;;;;;;10.98;6.85;;;22.60;99.90;;;;;;5012610;28;20463;-78
2021/06/10 02:35:26;;;;;;;8.88;6.80;;;22.60;99.90;;;;;;5012807;28;20120;-77
2021/06/10 02:37:57;;;;;;;10.93;6.13;;;22.50;99.90;;;;;;5003343;28;20429;-76
2021/06/10 02:40:32;;;;;;;8.10;6.25;;;22.50;99.90;;;;;;5013341;28;20363;-78
2021/06/10 02:43:02;;;;;;;14.77;6.63;;;22.50;99.90;;;;;;4994702;28;20018;-77
2021/06/10 02:45:31;;;;;;;8.98;5.90;;;22.40;99.90;;;;;;5012710;28;20029;-79
2021/06/10 02:47:59;;;;;;;9.30;6.00;;;22.40;99.90;;;;;;4995623;28;20104;-78
2021/06/10 02:50:27;;;;;;;7.57;5.22;;;22.40;99.90;;;;;;5013065;28;20038;-78
2021/06/10 02:52:54;;;;;;;10.27;5.40;;;22.30;99.90;;;;;;5013212;28;20466;-80
2021/06/10 02:55:20;;;;;;;14.95;5.70;;;22.30;99.90;;;;;;5012387;28;20076;-77
2021/06/10 02:57:51;;;;;;;6.90;5.45;;;22.30;99.90;;;;;;5012910;28;20045;-77
2021/06/10 03:00:18;;;;;;;14.07;5.07;;;22.30;99.90;;;;;;5012789;28;20084;-76
2021/06/10 03:02:46;;;;;;;8.50;5.60;;;22.20;99.90;;;;;;5012996;28;20022;-76
2021/06/10 03:05:12;;;;;;;10.60;5.25;;;22.20;99.90;;;;;;5012586;28;20018;-77
2021/06/10 03:07:39;;;;;;;6.97;5.10;;;22.10;99.90;;;;;;4994443;28;20482;-77
2021/06/10 03:10:08;;;;;;;8.52;4.22;;;22.00;99.90;;;;;;5011909;28;20120;-77
2021/06/10 03:12:35;;;;;;;11.18;3.97;;;22.00;99.90;;;;;;4999285;28;20018;-75
2021/06/10 03:15:01;;;;;;;13.80;5.20;;;21.90;99.90;;;;;;5013019;28;20638;-76
2021/06/10 03:17:27;;;;;;;6.35;4.70;;;21.90;99.90;;;;;;5012496;28;20033;-76
2021/06/10 03:19:54;;;;;;;11.18;4.70;;;21.90;99.90;;;;;;5012876;28;20113;-77
2021/06/10 03:22:20;;;;;;;5.03;4.53;;;21.90;99.90;;;;;;5012693;28;20437;-77
2021/06/10 03:24:46;;;;;;;4.32;3.92;;;22.00;99.90;;;;;;5012827;28;20104;-76
2021/06/10 03:27:13;;;;;;;9.63;4.88;;;22.00;99.90;;;;;;5012542;28;20022;-76
2021/06/10 03:29:40;;;;;;;7.68;4.03;;;22.00;99.90;;;;;;5012607;28;20555;-79
2021/06/10 03:32:06;;;;;;;5.60;4.07;;;22.00;99.90;;;;;;5012519;28;20029;-79
2021/06/10 03:34:33;;;;;;;4.38;3.80;;;22.10;99.90;;;;;;5011064;28;20747;-77
2021/06/10 03:37:00;;;;;;;3.63;3.30;;;22.10;99.90;;;;;;5012253;28;20026;-78
2021/06/10 03:39:26;;;;;;;4.18;3.50;;;22.20;99.90;;;;;;5012027;28;20013;-79
2021/06/10 03:41:55;;;;;;;6.15;3.50;;;22.20;99.90;;;;;;5011775;28;20561;-78
2021/06/10 03:44:20;;;;;;;7.68;3.92;;;22.30;99.90;;;;;;5011606;28;20026;-78
2021/06/10 03:46:46;;;;;;;3.72;2.92;;;22.40;99.90;;;;;;5012133;28;20076;-78
2021/06/10 03:49:13;;;;;;;7.30;3.13;;;22.40;99.90;;;;;;5011917;28;20475;-77
2021/06/10 03:51:39;;;;;;;4.85;2.80;;;22.50;99.90;;;;;;5011702;28;20057;-78
2021/06/10 03:54:06;;;;;;;3.70;2.90;;;22.50;99.80;;;;;;5013168;28;20026;-78
2021/06/10 03:56:32;;;;;;;5.28;3.08;;;22.60;99.80;;;;;;5012123;28;20025;-77
2021/06/10 03:58:58;;;;;;;4.40;3.20;;;22.60;99.80;;;;;;4994985;28;20426;-76
2021/06/10 04:01:24;;;;;;;3.85;3.40;;;22.60;99.80;;;;;;5013062;28;20030;-77
2021/06/10 04:03:49;;;;;;;2.85;2.60;;;22.70;99.60;;;;;;5012774;28;20041;-79
2021/06/10 04:06:16;;;;;;;3.55;3.25;;;22.70;99.20;;;;;;5012783;28;20080;-77
2021/06/10 04:08:43;;;;;;;6.45;2.63;;;22.70;99.20;;;;;;5011861;28;20474;-77
2021/06/10 04:11:08;;;;;;;2.85;2.50;;;22.70;98.80;;;;;;5011957;28;20483;-80
2021/06/10 04:13:34;;;;;;;3.30;2.50;;;22.80;98.60;;;;;;5012156;28;20022;-77
2021/06/10 04:16:00;;;;;;;5.03;2.83;;;22.80;98.60;;;;;;5012329;28;20097;-78
2021/06/10 04:18:26;;;;;;;4.05;2.97;;;22.80;98.50;;;;;;4995181;28;20064;-78
2021/06/10 04:20:52;;;;;;;2.60;2.40;;;22.80;98.40;;;;;;5012911;28;20076;-80
2021/06/10 04:23:18;;;;;;;2.88;2.47;;;22.80;98.40;;;;;;5012914;28;20018;-78
2021/06/10 04:25:44;;;;;;;2.88;2.67;;;22.90;98.50;;;;;;5012694;28;20041;-77
2021/06/10 04:28:10;;;;;;;2.65;2.45;;;22.90;98.70;;;;;;5012750;28;20089;-78
2021/06/10 04:30:36;;;;;;;2.63;2.42;;;22.90;98.70;;;;;;5010995;28;20054;-78
2021/06/10 04:33:02;;;;;;;7.97;2.55;;;22.90;98.70;;;;;;5012845;28;20040;-77
2021/06/10 04:35:28;;;;;;;3.38;2.95;;;22.80;98.70;;;;;;5013073;28;20091;-79
2021/06/10 04:37:54;;;;;;;8.25;2.63;;;22.80;98.80;;;;;;5012726;28;20137;-78
2021/06/10 04:40:20;;;;;;;8.45;2.58;;;22.80;98.60;;;;;;5009416;28;20503;-77
2021/06/10 04:42:45;;;;;;;3.70;3.08;;;22.90;98.60;;;;;;5007692;28;20421;-78
2021/06/10 04:45:11;;;;;;;2.92;2.40;;;22.90;98.40;;;;;;5010546;28;20084;-80
2021/06/10 04:47:37;;;;;;;2.60;2.40;;;22.90;98.50;;;;;;5011616;28;20133;-80
2021/06/10 04:50:04;;;;;;;5.22;2.83;;;23.00;98.40;;;;;;5011084;28;20541;-81
2021/06/10 04:52:30;;;;;;;3.08;2.60;;;23.10;98.40;;;;;;5011206;28;20080;-80
2021/06/10 04:54:56;;;;;;;2.97;2.67;;;23.10;98.40;;;;;;5010744;28;20105;-79
2021/06/10 04:57:21;;;;;;;3.00;2.70;;;23.10;98.60;;;;;;5011568;28;20536;-80
2021/06/10 04:59:47;;;;;;;3.65;3.05;;;23.00;98.80;;;;;;5011414;28;20022;-80
2021/06/10 05:02:13;;;;;;;4.13;2.58;;;23.00;98.90;;;;;;5011436;28;20022;-80
2021/06/10 05:04:39;;;;;;;3.90;3.17;;;23.00;99.00;;;;;;5011486;28;20471;-81
2021/06/10 05:07:04;;;;;;;3.30;3.00;;;23.00;98.90;;;;;;5010042;28;20018;-80
2021/06/10 05:09:30;;;;;;;3.28;3.00;;;23.00;98.90;;;;;;4993000;28;20034;-80
2021/06/10 05:11:56;;;;;;;9.32;3.65;;;23.10;99.00;;;;;;4998400;28;20044;-80
2021/06/10 05:14:21;;;;;;;4.13;3.25;;;23.00;99.10;;;;;;5005900;28;20073;-80
2021/06/10 05:16:49;;;;;;;3.80;3.40;;;23.00;99.30;;;;;;5006028;28;20033;-81
2021/06/10 05:19:15;;;;;;;5.70;4.20;;;23.00;99.40;;;;;;5014259;28;20080;-81
2021/06/10 05:21:41;;;;;;;5.30;3.78;;;23.10;99.60;;;;;;5014390;28;20537;-81
2021/06/10 05:24:08;;;;;;;5.20;4.30;;;23.10;99.70;;;;;;5014282;28;20013;-81
2021/06/10 05:26:35;;;;;;;5.88;4.03;;;23.10;99.70;;;;;;4997061;28;20030;-79
2021/06/10 05:29:03;;;;;;;6.88;4.03;;;23.10;99.90;;;;;;5014579;28;20026;-80
2021/06/10 05:31:28;;;;;;;4.25;3.80;;;23.10;99.90;;;;;;5014136;28;20449;-79
2021/06/10 05:33:54;;;;;;;8.68;4.25;;;23.10;99.90;;;;;;4999623;28;20026;-80
2021/06/10 05:36:20;;;;;;;5.88;3.72;;;23.00;99.90;;;;;;4994289;28;20040;-80
2021/06/10 05:38:46;;;;;;;4.72;3.22;;;22.90;99.90;;;;;;5014578;28;20398;-78
2021/06/10 05:41:11;;;;;;;12.98;4.03;;;23.00;99.90;;;;;;5013393;28;20021;-78
2021/06/10 05:43:37;;;;;;;4.40;3.30;;;22.90;99.90;;;;;;5014073;28;20029;-80
2021/06/10 05:46:03;;;;;;;5.05;3.60;;;22.90;99.90;;;;;;5013417;28;20034;-81
2021/06/10 05:48:29;;;;;;;9.75;3.90;;;22.80;99.90;;;;;;5012542;28;20053;-81
2021/06/10 05:50:54;;;;;;;6.65;3.92;;;22.80;99.90;;;;;;4996048;28;20038;-81
2021/06/10 05:53:20;;;;;;;8.23;3.75;;;22.80;99.90;;;;;;5013546;28;20026;-80
2021/06/10 05:55:46;;;;;;;4.38;3.50;;;22.80;99.90;;;;;;5013980;28;20131;-80
2021/06/10 05:58:13;;;;;;;12.32;3.75;;;22.80;99.90;;;;;;5009232;28;20072;-80
2021/06/10 06:00:40;;;;;;;5.82;3.72;;;22.90;99.90;;;;;;5013367;28;20026;-80
2021/06/10 06:03:07;;;;;;;8.30;4.72;;;22.90;99.90;;;;;;5013596;28;20046;-79
2021/06/10 06:05:33;;;;;;;6.97;4.13;;;23.00;99.90;;;;;;5013609;28;20054;-80
2021/06/10 06:07:59;;;;;;;17.45;4.10;;;23.10;99.90;;;;;;5013457;28;20438;-81
2021/06/10 06:10:29;;;;;;;6.25;4.25;;;23.10;99.90;;;;;;5003729;28;20034;-80
2021/06/10 06:12:57;;;;;;;9.68;4.78;;;23.20;99.90;;;;;;5018147;28;20017;-79
2021/06/10 06:15:24;;;;;;;4.80;4.07;;;23.20;99.90;;;;;;5013652;28;20117;-80
2021/06/10 06:17:50;;;;;;;10.93;4.60;;;23.30;99.90;;;;;;5013169;28;20415;-79
2021/06/10 06:20:19;;;;;;;7.97;3.97;;;23.40;99.90;;;;;;5013624;28;20050;-80
2021/06/10 06:22:45;;;;;;;5.10;3.88;;;23.50;99.90;;;;;;5009005;28;20041;-80
2021/06/10 06:25:13;;;;;;;4.85;3.67;;;23.70;99.90;;;;;;5013272;28;20523;-80
2021/06/10 06:27:40;;;;;;;8.13;4.03;;;23.80;99.90;;;;;;4995721;28;20382;-81
2021/06/10 06:30:07;;;;;;;6.63;3.63;;;24.10;99.90;;;;;;5012827;28;20042;-79
2021/06/10 06:32:35;;;;;;;3.25;2.95;;;24.70;99.80;;;;;;5001181;28;20397;-80
2021/06/10 06:35:01;;;;;;;5.45;3.25;;;25.50;98.60;;;;;;4995307;28;20056;-80
2021/06/10 06:37:27;;;;;;;3.92;3.17;;;26.30;97.90;;;;;;5006918;28;20057;-81
2021/06/10 06:39:52;;;;;;;5.25;3.25;;;26.30;97.50;;;;;;5013495;28;20403;-80
2021/06/10 06:42:18;;;;;;;13.60;3.58;;;26.00;97.30;;;;;;5013278;28;20021;-80
2021/06/10 06:44:44;;;;;;;8.13;3.17;;;25.50;97.60;;;;;;5005000;28;20026;-79
2021/06/10 06:47:10;;;;;;;4.97;2.92;;;25.30;97.60;;;;;;4998684;28;20037;-80
2021/06/10 06:49:35;;;;;;;8.50;2.80;;;25.20;97.90;;;;;;4996502;28;20045;-79
2021/06/10 06:52:02;;;;;;;4.78;3.33;;;25.10;98.30;;;;;;5007996;28;20080;-81
2021/06/10 06:54:27;;;;;;;5.35;3.25;;;25.20;98.20;;;;;;4993839;28;20030;-81
2021/06/10 06:56:53;;;;;;;9.77;3.00;;;25.90;97.30;;;;;;4994203;28;20030;-80
2021/06/10 06:59:19;;;;;;;6.22;3.42;;;26.70;96.90;;;;;;5000268;28;20490;-80
2021/06/10 07:01:44;;;;;;;3.95;2.95;;;27.50;96.00;;;;;;4997148;28;20113;-81
2021/06/10 07:04:10;;;;;;;7.18;2.90;;;28.30;95.60;;;;;;5003526;28;20478;-80
2021/06/10 07:06:36;;;;;;;4.22;3.20;;;28.80;95.10;;;;;;5005731;28;20022;-81
2021/06/10 07:09:03;;;;;;;6.88;2.60;;;29.10;94.40;;;;;;4999422;28;20148;-82
2021/06/10 07:11:28;;;;;;;8.32;2.55;;;29.50;93.60;;;;;;5000550;28;20042;-81
2021/06/10 07:13:54;;;;;;;10.85;2.90;;;29.70;93.60;;;;;;5006929;28;20364;-81
2021/06/10 07:16:20;;;;;;;12.30;3.10;;;29.80;92.90;;;;;;5002563;28;20026;-81
2021/06/10 07:18:45;;;;;;;3.85;2.80;;;30.00;93.00;;;;;;5002875;28;20015;-80
2021/06/10 07:21:11;;;;;;;3.40;2.53;;;29.90;93.10;;;;;;5006256;28;20494;-79
2021/06/10 07:23:37;;;;;;;5.13;2.80;;;30.00;92.60;;;;;;5007100;28;20022;-76
2021/06/10 07:26:03;;;;;;;11.23;3.00;;;30.10;92.50;;;;;;5011630;28;20363;-78
2021/06/10 07:28:28;;;;;;;72.05;8.48;;;30.10;92.50;;;;;;5011949;28;20526;-79
2021/06/10 07:30:54;;;;;;;10.38;3.35;;;29.80;92.60;;;;;;5010704;28;20100;-83
2021/06/10 07:33:20;;;;;;;3.72;3.22;;;29.80;92.30;;;;;;5002897;28;20104;-80
2021/06/10 07:35:46;;;;;;;4.22;2.92;;;29.50;92.40;;;;;;4998281;28;20459;-80
2021/06/10 07:38:13;;;;;;;6.40;3.00;;;29.30;92.60;;;;;;5008503;28;20015;-81
2021/06/10 07:40:39;;;;;;;8.05;3.13;;;28.90;93.10;;;;;;4995524;28;20026;-82
2021/06/10 07:43:06;;;;;;;7.72;3.00;;;28.70;93.50;;;;;;5011525;28;20050;-80
2021/06/10 07:45:31;;;;;;;5.78;3.38;;;28.80;93.40;;;;;;5012067;28;20048;-79
2021/06/10 07:47:58;;;;;;;3.63;2.63;;;28.60;93.00;;;;;;5006718;28;20523;-79
2021/06/10 07:50:25;;;;;;;9.82;3.05;;;29.00;93.10;;;;;;5000281;28;20034;-81
2021/06/10 07:52:50;;;;;;;8.35;3.40;;;29.00;92.90;;;;;;4994643;28;20440;-80
2021/06/10 07:55:19;;;;;;;8.98;3.67;;;29.00;92.70;;;;;;4995969;28;20038;-79
2021/06/10 07:57:45;;;;;;;12.73;3.22;;;29.10;92.90;;;;;;4993882;28;20061;-79
2021/06/10 08:00:11;;;;;;;6.22;3.33;;;29.00;93.00;;;;;;4995967;28;20483;-79
2021/06/10 08:02:36;;;;;;;15.65;4.57;;;29.10;92.80;;;;;;4997462;28;20073;-82
2021/06/10 08:05:03;;;;;;;11.73;3.40;;;28.70;93.20;;;;;;5005951;28;20441;-80
2021/06/10 08:07:29;;;;;;;10.93;3.55;;;28.90;93.50;;;;;;4994545;28;20433;-77
2021/06/10 08:09:56;;;;;;;4.95;3.35;;;28.90;93.30;;;;;;4992531;28;20061;-82
2021/06/10 08:12:22;;;;;;;12.98;3.95;;;29.10;93.40;;;;;;4993769;28;20030;-83
2021/06/10 08:14:49;;;;;;;10.45;3.50;;;29.00;92.90;;;;;;4995346;28;20023;-83
2021/06/10 08:17:16;;;;;;;6.35;3.58;;;29.00;92.90;;;;;;4996677;28;20037;-84
2021/06/10 08:19:42;;;;;;;13.07;3.65;;;28.90;92.60;;;;;;4994346;28;20495;-82
2021/06/10 08:22:08;;;;;;;7.82;3.47;;;28.80;93.00;;;;;;4993799;28;20093;-83
2021/06/10 08:24:34;;;;;;;9.52;3.38;;;29.00;93.10;;;;;;4995119;28;20482;-81
2021/06/10 08:26:59;;;;;;;7.07;3.67;;;28.90;92.80;;;;;;4989573;28;20109;-80
2021/06/10 08:29:27;;;;;;;3.90;3.50;;;28.60;92.30;;;;;;4995369;28;20113;-80
2021/06/10 08:31:54;;;;;;;4.32;3.67;;;28.50;92.90;;;;;;4991149;28;20135;-79
2021/06/10 08:34:21;;;;;;;28.70;3.97;;;28.70;92.60;;;;;;4993578;28;20494;-79
2021/06/10 08:36:50;;;;;;;6.90;4.00;;;28.60;92.70;;;;;;4989800;28;20386;-78
2021/06/10 08:39:16;;;;;;;5.43;3.60;;;28.60;93.30;;;;;;5000173;28;20041;-81
2021/06/10 08:41:43;;;;;;;6.78;3.35;;;28.40;92.60;;;;;;4998855;28;20050;-79
2021/06/10 08:44:09;;;;;;;12.43;3.78;;;28.30;93.00;;;;;;5009270;28;20015;-79
2021/06/10 08:46:36;;;;;;;5.25;3.70;;;28.20;93.20;;;;;;5001633;28;20131;-81
2021/06/10 08:49:04;;;;;;;13.48;3.92;;;28.30;93.00;;;;;;4998442;28;20026;-81
2021/06/10 08:51:30;;;;;;;10.38;3.28;;;28.30;93.30;;;;;;4996277;28;20026;-81
2021/06/10 08:53:57;;;;;;;5.50;3.70;;;28.20;93.00;;;;;;4995011;28;20169;-81
2021/06/10 08:56:32;;;;;;;8.13;3.78;;;28.20;93.20;;;;;;5002017;28;20544;-81
2021/06/10 08:58:58;;;;;;;5.47;3.85;;;28.30;93.60;;;;;;4995562;28;20019;-81
2021/06/10 09:01:25;;;;;;;7.18;3.50;;;28.50;94.00;;;;;;4995319;28;20041;-81
2021/06/10 09:03:51;;;;;;;5.50;3.63;;;28.80;93.70;;;;;;5012440;28;20516;-81
2021/06/10 09:06:18;;;;;;;6.15;3.72;;;28.60;94.00;;;;;;5014497;28;20029;-81
2021/06/10 09:08:49;;;;;;;5.32;3.28;;;28.70;93.90;;;;;;5015358;28;21935;-81
2021/06/10 09:11:22;;;;;;;5.43;3.83;;;28.90;93.90;;;;;;5015189;28;20030;-79
2021/06/10 09:13:58;;;;;;;9.48;4.03;;;28.90;93.80;;;;;;5015217;28;20114;-81
2021/06/10 09:16:29;;;;;;;13.10;4.20;;;29.00;93.90;;;;;;5015134;28;20022;-81
2021/06/10 09:19:02;;;;;;;3.85;3.25;;;29.10;93.90;;;;;;5014969;28;20053;-81
2021/06/10 09:21:36;;;;;;;5.60;3.50;;;29.10;93.20;;;;;;5015151;28;20030;-81
2021/06/10 09:24:23;;;;;;;4.85;3.60;;;29.10;93.20;;;;;;5014492;28;20714;-82
2021/06/10 09:27:00;;;;;;;4.80;3.17;;;29.20;92.80;;;;;;5010704;28;20030;-82
2021/06/10 09:29:45;;;;;;;5.75;3.22;;;29.30;92.40;;;;;;5014657;28;20469;-82
2021/06/10 09:32:19;;;;;;;4.95;3.38;;;29.30;92.40;;;;;;5015023;28;20033;-81
2021/06/10 09:34:56;;;;;;;4.47;3.00;;;29.60;92.40;;;;;;5012221;28;20022;-81
2021/06/10 09:37:32;;;;;;;3.85;3.03;;;29.60;92.00;;;;;;5014457;28;20493;-82
2021/06/10 09:39:59;;;;;;;5.00;3.00;;;29.90;92.10;;;;;;5014627;28;20166;-81
2021/06/10 09:42:45;;;;;;;6.65;2.70;;;30.10;91.70;;;;;;5014683;28;20463;-83
2021/06/10 09:45:20;;;;;;;4.57;2.90;;;30.00;91.20;;;;;;5001926;28;20022;-83
2021/06/10 09:47:50;;;;;;;5.15;3.30;;;29.80;90.20;;;;;;5014383;28;20599;-81
2021/06/10 09:50:41;;;;;;;5.95;3.10;;;29.70;90.60;;;;;;4996913;28;20046;-83
2021/06/10 09:53:16;;;;;;;9.35;3.50;;;29.30;90.80;;;;;;4996039;28;20037;-83
2021/06/10 09:55:46;;;;;;;11.43;3.53;;;29.30;91.00;;;;;;5012913;28;20022;-82
2021/06/10 09:58:12;;;;;;;5.85;3.22;;;29.40;91.20;;;;;;4996825;28;20037;-83
2021/06/10 10:00:48;;;;;;;4.55;2.95;;;29.60;90.70;;;;;;5013835;28;20038;-82
2021/06/10 10:03:27;;;;;;;8.57;3.58;;;29.60;90.70;;;;;;5014353;28;20029;-83
2021/06/10 10:05:57;;;;;;;3.40;2.85;;;29.60;90.50;;;;;;5014240;28;20037;-81
2021/06/10 10:08:24;;;;;;;3.85;3.25;;;29.60;89.40;;;;;;5014301;28;20046;-82
2021/06/10 10:10:50;;;;;;;4.30;3.22;;;29.40;90.10;;;;;;5013622;28;20479;-82
2021/06/10 10:13:18;;;;;;;22.77;3.97;;;29.60;90.80;;;;;;5014287;28;20026;-82
2021/06/10 10:15:44;;;;;;;5.60;3.05;;;29.60;90.60;;;;;;5013138;28;20018;-81
2021/06/10 10:18:11;;;;;;;3.50;3.20;;;29.60;90.20;;;;;;5013704;28;20022;-82
2021/06/10 10:20:38;;;;;;;4.65;3.22;;;29.50;89.90;;;;;;5012533;28;20153;-83
2021/06/10 10:23:06;;;;;;;5.45;3.47;;;29.60;90.10;;;;;;5013166;28;20018;-82
2021/06/10 10:25:31;;;;;;;3.35;3.05;;;29.70;89.90;;;;;;4994225;28;20172;-82
2021/06/10 10:28:00;;;;;;;6.65;3.17;;;29.80;90.00;;;;;;5012070;28;20105;-82
2021/06/10 10:30:26;;;;;;;4.85;2.75;;;29.90;90.10;;;;;;5011933;28;20548;-82
2021/06/10 10:32:52;;;;;;;3.47;3.10;;;30.10;90.10;;;;;;5012551;28;20483;-81
2021/06/10 10:35:21;;;;;;;5.20;2.97;;;30.10;88.50;;;;;;5012475;28;20030;-80
2021/06/10 10:37:47;;;;;;;7.05;3.30;;;30.10;89.40;;;;;;5012095;28;20029;-82
2021/06/10 10:40:21;;;;;;;4.43;2.92;;;30.20;90.00;;;;;;5011707;28;20033;-83
2021/06/10 10:42:47;;;;;;;6.65;2.95;;;30.10;87.80;;;;;;5003634;28;20022;-81
2021/06/10 10:45:21;;;;;;;3.30;2.88;;;30.20;88.60;;;;;;5012028;28;20037;-83
2021/06/10 10:48:24;;;;;;;4.32;3.00;;;30.20;88.20;;;;;;5012254;28;20021;-82
2021/06/10 10:50:47;;;;;;;6.75;3.15;;;30.20;86.80;;;;;;5006381;28;20127;-83
2021/06/10 10:53:18;;;;;;;2.90;2.55;;;29.90;87.20;;;;;;5011703;28;20093;-82
2021/06/10 10:55:44;;;;;;;4.93;2.92;;;29.60;88.40;;;;;;5009555;28;20172;-81
2021/06/10 10:58:18;;;;;;;5.95;3.08;;;29.80;87.80;;;;;;5010724;28;20040;-81
2021/06/10 11:00:44;;;;;;;6.43;2.97;;;29.80;88.00;;;;;;5011185;28;20435;-81
2021/06/10 11:03:36;;;;;;;9.13;3.45;;;29.70;87.10;;;;;;5011814;28;20174;-81
2021/06/10 11:06:22;;;;;;;24.73;4.70;;;29.60;87.40;;;;;;5008136;28;20022;-83
2021/06/10 11:09:13;;;;;;;6.00;3.40;;;29.40;87.70;;;;;;4999582;28;20037;-82
2021/06/10 11:11:59;;;;;;;12.30;3.10;;;29.40;88.50;;;;;;5012798;28;20030;-82
2021/06/10 11:14:35;;;;;;;9.25;3.17;;;29.80;89.50;;;;;;5003684;28;20053;-81
2021/06/10 11:17:19;;;;;;;4.97;2.83;;;29.90;88.70;;;;;;5012204;28;20018;-82
2021/06/10 11:20:11;;;;;;;21.30;3.38;;;29.90;87.30;;;;;;5012554;28;20030;-82
2021/06/10 11:22:51;;;;;;;6.35;3.20;;;29.80;87.60;;;;;;5001516;28;20030;-79
2021/06/10 11:25:26;;;;;;;4.38;3.25;;;29.70;87.50;;;;;;5012468;28;20105;-82
2021/06/10 11:27:54;;;;;;;3.10;2.80;;;29.60;87.40;;;;;;5001813;28;20025;-82
2021/06/10 11:30:31;;;;;;;6.53;2.72;;;29.80;87.60;;;;;;5011508;28;20124;-82
2021/06/10 11:33:09;;;;;;;4.63;2.75;;;29.80;87.80;;;;;;4997390;28;20052;-81
2021/06/10 11:35:34;;;;;;;4.20;2.90;;;29.80;87.00;;;;;;4997873;28;20045;-82
2021/06/10 11:38:10;;;;;;;3.63;2.65;;;29.90;87.60;;;;;;5002160;28;20479;-83
2021/06/10 11:40:36;;;;;;;3.30;2.70;;;30.10;87.60;;;;;;4992324;28;20455;-82
2021/06/10 11:43:07;;;;;;;8.57;3.03;;;30.30;87.20;;;;;;5001415;28;20025;-83
2021/06/10 11:45:34;;;;;;;16.20;4.03;;;30.30;85.40;;;;;;4993157;28;20026;-82
2021/06/10 11:47:59;;;;;;;4.93;2.47;;;30.20;85.30;;;;;;5012877;23;20033;-81
2021/06/10 11:50:30;;;;;;;4.28;3.35;;;30.30;85.10;;;;;;4996197;28;20029;-81
2021/06/10 11:53:17;;;;;;;33.47;3.85;;;30.30;86.00;;;;;;5004045;28;20026;-81
2021/06/10 11:55:43;;;;;;;14.88;3.15;;;30.50;85.90;;;;;;4992266;28;20029;-81
2021/06/10 11:58:11;;;;;;;5.13;2.75;;;30.60;85.90;;;;;;4994382;28;20042;-81
2021/06/10 12:00:44;;;;;;;5.93;3.20;;;30.70;84.30;;;;;;4997307;28;20092;-81
2021/06/10 12:03:12;;;;;;;2.95;2.67;;;30.70;84.80;;;;;;5008587;28;20030;-81
2021/06/10 12:05:52;;;;;;;10.15;3.30;;;30.70;85.90;;;;;;5005444;28;20023;-81
2021/06/10 12:08:26;;;;;;;3.28;2.67;;;30.60;85.70;;;;;;4979281;28;20492;-82
2021/06/10 12:10:53;;;;;;;3.22;2.80;;;30.50;85.90;;;;;;4973565;28;20038;-81
2021/06/10 12:13:35;;;;;;;12.13;2.60;;;30.30;86.00;;;;;;4973106;28;20023;-81
2021/06/10 12:16:19;;;;;;;3.00;2.72;;;30.10;86.60;;;;;;4974063;28;20033;-81
2021/06/10 12:18:51;;;;;;;4.57;2.97;;;29.80;86.00;;;;;;4979071;28;20084;-83
2021/06/10 12:21:23;;;;;;;11.43;3.28;;;29.80;86.80;;;;;;5013616;28;20080;-81
2021/06/10 12:23:58;;;;;;;10.57;3.35;;;29.80;86.60;;;;;;5000223;28;20018;-81
2021/06/10 12:26:25;;;;;;;8.77;3.17;;;29.70;87.30;;;;;;4997058;28;20030;-83
2021/06/10 12:28:52;;;;;;;3.72;3.10;;;29.80;87.30;;;;;;4995424;28;20041;-81
2021/06/10 12:31:20;;;;;;;3.40;2.80;;;29.90;86.80;;;;;;4995606;28;20030;-82
2021/06/10 12:33:51;;;;;;;4.45;3.10;;;30.10;85.60;;;;;;4995198;28;20467;-83
2021/06/10 12:36:32;;;;;;;3.22;2.78;;;30.20;85.20;;;;;;4999372;28;20092;-82
2021/06/10 12:39:12;;;;;;;6.70;2.77;;;30.20;85.80;;;;;;4999743;28;20029;-83
2021/06/10 12:41:49;;;;;;;3.22;2.92;;;30.10;83.30;;;;;;4995253;28;20041;-83
2021/06/10 12:44:19;;;;;;;17.17;2.92;;;30.10;84.00;;;;;;4993267;28;20498;-83
2021/06/10 12:46:52;;;;;;;7.32;3.10;;;30.10;83.80;;;;;;4996726;28;20483;-84
2021/06/10 12:49:31;;;;;;;3.65;3.00;;;30.20;84.50;;;;;;4996245;28;20074;-82
2021/06/10 12:51:57;;;;;;;3.63;2.90;;;30.20;84.80;;;;;;5012508;28;20021;-83